Time;durP1;ratioP1;P1;durP2;ratioP2;P2;SDS_P1;SDS_P2;PMS_P1;PMS_P2;Temp;Humidity;BMP_temperature;BMP_pressure;BME280_temperature;BME280_humidity;BME280_pressure;Samples;Min_cycle;Max_cycle;Signal;HPM_P1;HPM_P2
2023/05/20 00:00:05;;;;;;;21.48;17.27;;;16.10;1.00;;;;;;5054006;28;20107;-65
2023/05/20 00:02:31;;;;;;;21.67;18.23;;;16.20;1.00;;;;;;5051391;28;20090;-65
2023/05/20 00:04:56;;;;;;;21.50;16.73;;;16.20;1.00;;;;;;5052559;28;20020;-65
2023/05/20 00:07:22;;;;;;;21.15;17.50;;;16.20;1.00;;;;;;5051174;28;20017;-64
2023/05/20 00:09:47;;;;;;;21.98;17.30;;;16.20;1.00;;;;;;5053143;28;20047;-64
2023/05/20 00:12:13;;;;;;;20.35;16.58;;;16.20;1.00;;;;;;5052621;28;20110;-64
2023/05/20 00:14:39;;;;;;;19.90;17.08;;;16.20;1.00;;;;;;5053213;28;20025;-64
2023/05/20 00:17:04;;;;;;;20.15;16.60;;;16.20;1.00;;;;;;5052090;28;20021;-64
2023/05/20 00:19:30;;;;;;;21.80;18.10;;;16.20;1.00;;;;;;5052524;28;20090;-64
2023/05/20 00:21:56;;;;;;;21.92;18.67;;;16.20;1.00;;;;;;5052463;28;20025;-64
2023/05/20 00:24:22;;;;;;;21.80;16.55;;;16.20;1.00;;;;;;5052310;28;20056;-64
2023/05/20 00:26:48;;;;;;;20.25;17.23;;;16.20;1.00;;;;;;5053108;28;20029;-64
2023/05/20 00:29:14;;;;;;;17.70;15.15;;;16.20;1.00;;;;;;5052135;28;20036;-64
2023/05/20 00:31:40;;;;;;;18.55;14.88;;;16.30;1.00;;;;;;5052975;28;20387;-64
2023/05/20 00:34:07;;;;;;;20.75;16.55;;;16.30;1.00;;;;;;5051526;28;20016;-65
2023/05/20 00:36:32;;;;;;;18.85;15.32;;;16.20;1.00;;;;;;5050761;28;20041;-64
2023/05/20 00:38:58;;;;;;;15.25;13.05;;;16.30;1.00;;;;;;5048661;28;20040;-64
2023/05/20 00:41:24;;;;;;;14.23;12.32;;;16.30;1.00;;;;;;5048378;28;20060;-64
2023/05/20 00:43:53;;;;;;;12.07;10.75;;;16.30;1.00;;;;;;5050675;28;20033;-64
2023/05/20 00:46:19;;;;;;;12.60;11.10;;;16.30;1.00;;;;;;5051908;28;20032;-65
2023/05/20 00:48:45;;;;;;;12.65;11.35;;;16.20;1.00;;;;;;5052606;28;20490;-64
2023/05/20 00:51:13;;;;;;;12.43;10.55;;;16.30;1.00;;;;;;5051127;28;20017;-64
2023/05/20 00:53:39;;;;;;;11.02;9.88;;;16.30;1.00;;;;;;5052524;28;20383;-64
2023/05/20 00:56:06;;;;;;;11.18;10.00;;;16.20;1.00;;;;;;5052462;28;20021;-64
2023/05/20 00:58:31;;;;;;;11.98;10.75;;;16.20;1.00;;;;;;5049461;28;20435;-64
2023/05/20 01:00:57;;;;;;;11.38;10.18;;;16.30;1.00;;;;;;5049422;28;20168;-64
2023/05/20 01:03:23;;;;;;;11.45;9.23;;;16.20;1.00;;;;;;5047331;28;20121;-64
2023/05/20 01:05:48;;;;;;;10.85;9.77;;;16.30;1.00;;;;;;5052257;28;20032;-64
2023/05/20 01:08:14;;;;;;;9.38;8.43;;;16.30;1.00;;;;;;5050454;28;20021;-64
2023/05/20 01:10:46;;;;;;;11.52;9.65;;;16.30;1.00;;;;;;5049337;28;20022;-64
2023/05/20 01:13:18;;;;;;;13.23;9.95;;;16.20;1.00;;;;;;5052954;28;20408;-65
2023/05/20 01:15:46;;;;;;;10.52;9.13;;;16.30;1.00;;;;;;5047881;28;20036;-64
2023/05/20 01:18:17;;;;;;;12.05;10.32;;;16.30;1.00;;;;;;5048861;28;20538;-64
2023/05/20 01:20:46;;;;;;;10.32;9.25;;;16.30;1.00;;;;;;5052120;28;20033;-64
2023/05/20 01:23:12;;;;;;;10.43;9.43;;;16.30;1.00;;;;;;5052314;28;20487;-65
2023/05/20 01:25:37;;;;;;;11.02;9.63;;;16.30;1.00;;;;;;5039314;28;20033;-64
2023/05/20 01:28:03;;;;;;;11.13;9.63;;;16.30;1.00;;;;;;5049782;28;20032;-64
2023/05/20 01:30:34;;;;;;;10.55;9.32;;;16.30;1.00;;;;;;5043489;28;20025;-64
2023/05/20 01:33:15;;;;;;;10.20;9.20;;;16.30;1.00;;;;;;5048961;28;20071;-64
2023/05/20 01:35:41;;;;;;;11.63;9.45;;;16.30;1.00;;;;;;5049804;28;20020;-64
2023/05/20 01:38:07;;;;;;;11.90;9.85;;;16.30;1.00;;;;;;5048901;28;20123;-64
2023/05/20 01:40:34;;;;;;;11.45;10.25;;;16.30;1.00;;;;;;5051303;28;20124;-64
2023/05/20 01:43:01;;;;;;;10.65;9.65;;;16.30;1.00;;;;;;5051442;28;20041;-64
2023/05/20 01:45:27;;;;;;;10.70;9.60;;;16.30;1.00;;;;;;5049714;28;20112;-64
2023/05/20 01:47:52;;;;;;;10.93;9.80;;;16.30;1.00;;;;;;5051812;28;20450;-64
2023/05/20 01:50:18;;;;;;;11.18;9.98;;;16.30;1.00;;;;;;5049106;28;20033;-64
2023/05/20 01:52:44;;;;;;;10.10;9.10;;;16.30;1.00;;;;;;5052018;28;20021;-65
2023/05/20 01:55:10;;;;;;;11.77;10.50;;;16.30;1.00;;;;;;5050747;28;20048;-64
2023/05/20 01:57:35;;;;;;;10.30;9.20;;;16.30;1.00;;;;;;5051433;28;20049;-64
2023/05/20 02:00:01;;;;;;;10.38;9.23;;;16.30;1.00;;;;;;5050828;28;20056;-64
2023/05/20 02:02:27;;;;;;;11.43;10.23;;;16.30;1.00;;;;;;5049396;28;20021;-64
2023/05/20 02:04:53;;;;;;;10.13;9.13;;;16.30;1.00;;;;;;5051683;28;20459;-64
2023/05/20 02:07:18;;;;;;;10.52;9.35;;;16.30;1.00;;;;;;5051590;28;20033;-64
2023/05/20 02:09:45;;;;;;;10.07;8.60;;;16.30;1.00;;;;;;5045889;28;20026;-64
2023/05/20 02:12:15;;;;;;;9.63;8.73;;;16.30;1.00;;;;;;5035253;28;20436;-64
2023/05/20 02:14:44;;;;;;;9.10;8.30;;;16.30;1.00;;;;;;5051827;28;20020;-64
2023/05/20 02:17:10;;;;;;;9.30;8.05;;;16.30;1.00;;;;;;5050934;28;20399;-64
2023/05/20 02:19:36;;;;;;;8.75;7.20;;;16.30;1.00;;;;;;5052544;28;20041;-64
2023/05/20 02:22:01;;;;;;;6.82;6.22;;;16.20;1.00;;;;;;5050646;28;20025;-64
2023/05/20 02:24:27;;;;;;;8.77;5.75;;;16.20;1.00;;;;;;5050192;28;20090;-65
2023/05/20 02:26:54;;;;;;;6.03;5.43;;;16.20;1.00;;;;;;5051590;28;20032;-65
2023/05/20 02:29:21;;;;;;;7.22;6.53;;;16.20;1.00;;;;;;5051506;28;20116;-64
2023/05/20 02:31:47;;;;;;;6.70;6.05;;;16.30;1.00;;;;;;5049588;28;20104;-64
2023/05/20 02:34:16;;;;;;;6.65;6.05;;;16.30;1.00;;;;;;5047046;28;20096;-64
2023/05/20 02:36:41;;;;;;;7.78;6.20;;;16.20;1.00;;;;;;5051216;28;20033;-64
2023/05/20 02:39:07;;;;;;;8.48;6.13;;;16.20;1.00;;;;;;5043942;28;20052;-64
2023/05/20 02:41:33;;;;;;;6.07;5.47;;;16.20;1.00;;;;;;5051364;28;20029;-65
2023/05/20 02:43:59;;;;;;;5.63;5.13;;;16.20;1.00;;;;;;5048029;28;20021;-65
2023/05/20 02:46:25;;;;;;;5.03;4.63;;;16.20;1.00;;;;;;5049629;28;20108;-64
2023/05/20 02:48:50;;;;;;;5.20;4.57;;;16.20;1.00;;;;;;5051214;28;20498;-64
2023/05/20 02:51:16;;;;;;;6.25;4.78;;;16.20;1.00;;;;;;5049461;28;20033;-64
2023/05/20 02:53:41;;;;;;;5.70;4.80;;;16.20;1.00;;;;;;5050637;28;20479;-64
2023/05/20 02:56:07;;;;;;;4.47;4.07;;;16.20;1.00;;;;;;5048838;28;20048;-65
2023/05/20 02:58:34;;;;;;;3.95;3.58;;;16.20;1.00;;;;;;5051106;28;20071;-64
2023/05/20 03:01:00;;;;;;;5.25;4.05;;;16.20;1.00;;;;;;5049320;28;20013;-65
2023/05/20 03:03:26;;;;;;;3.60;3.30;;;16.20;1.00;;;;;;5051418;28;20032;-64
2023/05/20 03:05:52;;;;;;;3.67;3.38;;;16.20;1.00;;;;;;5048767;28;20025;-64
2023/05/20 03:08:20;;;;;;;3.35;2.85;;;16.10;1.00;;;;;;5049673;28;20029;-64
2023/05/20 03:10:46;;;;;;;3.78;2.80;;;16.10;1.00;;;;;;5049170;28;20530;-65
2023/05/20 03:13:14;;;;;;;2.70;2.50;;;16.10;1.00;;;;;;5050728;28;20037;-64
2023/05/20 03:15:45;;;;;;;3.30;2.90;;;16.10;1.00;;;;;;5052705;28;20025;-64
2023/05/20 03:18:12;;;;;;;2.67;2.47;;;16.10;1.00;;;;;;5049533;28;20039;-64
2023/05/20 03:20:40;;;;;;;3.85;2.53;;;16.00;1.00;;;;;;5049570;28;20036;-63
2023/05/20 03:23:06;;;;;;;3.15;2.70;;;16.10;1.00;;;;;;5054401;28;20490;-64
2023/05/20 03:25:32;;;;;;;2.60;2.40;;;16.10;1.00;;;;;;5053120;28;20033;-64
2023/05/20 03:27:58;;;;;;;3.08;2.78;;;16.10;1.00;;;;;;5051875;28;20428;-64
2023/05/20 03:30:27;;;;;;;2.53;2.30;;;16.10;1.00;;;;;;5054076;28;20025;-64
2023/05/20 03:32:55;;;;;;;5.22;2.65;;;16.10;1.00;;;;;;5047076;28;20457;-64
2023/05/20 03:35:20;;;;;;;2.55;2.35;;;16.10;1.00;;;;;;5054411;28;20041;-63
2023/05/20 03:37:46;;;;;;;3.33;3.03;;;16.10;1.00;;;;;;5051918;28;20116;-63
2023/05/20 03:40:12;;;;;;;3.10;2.67;;;16.10;1.00;;;;;;5053907;28;20037;-64
2023/05/20 03:42:38;;;;;;;3.70;2.70;;;16.10;1.00;;;;;;5054280;28;20047;-64
2023/05/20 03:45:05;;;;;;;3.95;2.13;;;16.10;1.00;;;;;;5052540;28;20133;-65
2023/05/20 03:47:31;;;;;;;2.80;2.60;;;16.10;1.00;;;;;;5049392;28;20175;-64
2023/05/20 03:49:57;;;;;;;3.85;2.92;;;16.10;1.00;;;;;;5052893;28;20489;-65
2023/05/20 03:52:22;;;;;;;3.95;2.50;;;16.10;1.00;;;;;;5051905;28;20021;-64
2023/05/20 03:54:48;;;;;;;2.33;2.13;;;16.10;1.00;;;;;;5053762;28;20033;-65
2023/05/20 03:57:14;;;;;;;3.00;2.70;;;16.10;1.00;;;;;;5052035;28;20032;-64
2023/05/20 03:59:40;;;;;;;3.63;2.72;;;16.00;1.00;;;;;;5053151;28;20036;-64
2023/05/20 04:02:07;;;;;;;2.85;2.40;;;16.10;1.00;;;;;;5053110;28;20017;-64
2023/05/20 04:04:32;;;;;;;3.03;2.53;;;16.10;1.00;;;;;;5053390;28;20032;-65
2023/05/20 04:07:03;;;;;;;2.85;2.55;;;16.10;1.00;;;;;;5051816;28;20033;-65
2023/05/20 04:09:29;;;;;;;2.58;2.13;;;16.10;1.00;;;;;;5053301;28;20025;-64
2023/05/20 04:11:55;;;;;;;2.45;2.25;;;16.00;1.00;;;;;;5052925;28;20024;-64
2023/05/20 04:14:21;;;;;;;2.33;2.17;;;16.00;1.00;;;;;;5050426;28;20048;-64
2023/05/20 04:16:49;;;;;;;2.80;2.50;;;16.10;1.00;;;;;;5053379;28;20534;-64
2023/05/20 04:19:14;;;;;;;2.20;2.00;;;16.00;1.00;;;;;;5053429;28;20375;-64
2023/05/20 04:21:42;;;;;;;3.33;2.22;;;16.10;1.00;;;;;;5045572;28;20028;-64
2023/05/20 04:24:07;;;;;;;2.58;2.28;;;16.00;1.00;;;;;;5051600;28;20036;-64
2023/05/20 04:26:34;;;;;;;2.35;2.15;;;16.10;1.00;;;;;;5052135;28;20429;-64
2023/05/20 04:29:03;;;;;;;2.13;1.73;;;16.00;1.00;;;;;;5052877;28;20025;-64
2023/05/20 04:31:29;;;;;;;2.53;1.85;;;16.10;1.00;;;;;;5052149;28;20431;-63
2023/05/20 04:33:55;;;;;;;2.65;2.42;;;16.10;1.00;;;;;;5052191;28;20094;-64
2023/05/20 04:36:27;;;;;;;4.00;2.13;;;16.10;1.00;;;;;;5051284;28;20017;-64
2023/05/20 04:38:53;;;;;;;2.40;2.10;;;16.10;1.00;;;;;;5053015;28;20094;-65
2023/05/20 04:41:19;;;;;;;2.22;2.03;;;16.00;1.00;;;;;;5049565;28;20025;-64
2023/05/20 04:43:44;;;;;;;2.17;1.98;;;16.00;1.00;;;;;;5049317;28;20047;-64
2023/05/20 04:46:10;;;;;;;6.38;2.25;;;16.10;1.00;;;;;;5051251;28;20029;-64
2023/05/20 04:48:36;;;;;;;2.28;1.80;;;16.00;1.00;;;;;;5052946;28;20391;-64
2023/05/20 04:51:01;;;;;;;2.80;2.20;;;16.10;1.00;;;;;;5051016;28;20025;-65
2023/05/20 04:53:29;;;;;;;2.53;2.33;;;16.10;1.00;;;;;;5052580;28;20116;-64
2023/05/20 04:55:55;;;;;;;2.75;2.10;;;16.10;1.00;;;;;;5051576;28;20043;-64
2023/05/20 04:58:23;;;;;;;2.72;2.25;;;16.10;1.00;;;;;;5049512;28;20463;-65
2023/05/20 05:00:50;;;;;;;2.92;2.35;;;16.10;1.00;;;;;;5051545;28;20035;-65
2023/05/20 05:03:15;;;;;;;4.57;2.63;;;16.10;1.00;;;;;;5052408;28;20028;-64
2023/05/20 05:05:42;;;;;;;4.50;2.60;;;16.10;1.00;;;;;;5052525;28;20041;-65
2023/05/20 05:08:08;;;;;;;2.80;2.50;;;16.10;1.00;;;;;;5049368;28;20029;-64
2023/05/20 05:10:35;;;;;;;2.97;2.42;;;16.10;1.00;;;;;;5051479;28;20408;-65
2023/05/20 05:13:01;;;;;;;3.55;2.55;;;16.20;1.00;;;;;;5052107;28;20024;-64
2023/05/20 05:15:27;;;;;;;3.25;2.72;;;16.20;1.00;;;;;;5052233;28;20479;-65
2023/05/20 05:17:53;;;;;;;3.58;2.70;;;16.20;1.00;;;;;;5051502;28;20029;-64
2023/05/20 05:20:19;;;;;;;4.63;2.80;;;16.20;1.00;;;;;;5051998;28;20033;-65
2023/05/20 05:22:45;;;;;;;2.88;2.60;;;16.20;1.00;;;;;;5050460;28;20378;-65
2023/05/20 05:25:11;;;;;;;6.00;2.72;;;16.20;1.00;;;;;;5051529;28;20036;-65
2023/05/20 05:27:37;;;;;;;3.17;2.50;;;16.20;1.00;;;;;;5050880;28;20412;-64
2023/05/20 05:30:05;;;;;;;3.13;2.72;;;16.20;1.00;;;;;;5050677;28;20028;-64
2023/05/20 05:32:30;;;;;;;3.30;2.75;;;16.20;1.00;;;;;;5051617;28;20067;-64
2023/05/20 05:34:56;;;;;;;2.45;2.22;;;16.20;1.00;;;;;;5052487;28;20067;-64
2023/05/20 05:37:22;;;;;;;3.15;2.30;;;16.20;1.00;;;;;;5049313;28;20060;-64
2023/05/20 05:39:48;;;;;;;2.42;1.92;;;16.30;1.00;;;;;;5040210;28;20029;-65
2023/05/20 05:42:14;;;;;;;2.17;2.03;;;16.30;1.00;;;;;;5048815;28;20786;-64
2023/05/20 05:44:39;;;;;;;5.20;2.28;;;16.30;1.00;;;;;;5051698;28;20360;-64
2023/05/20 05:47:05;;;;;;;2.58;2.38;;;16.30;1.00;;;;;;5051639;28;20538;-64
2023/05/20 05:49:31;;;;;;;3.70;2.85;;;16.30;1.00;;;;;;5051729;28;20162;-64
2023/05/20 05:51:57;;;;;;;7.05;2.13;;;16.30;1.00;;;;;;5048844;28;20039;-65
2023/05/20 05:54:23;;;;;;;2.85;2.50;;;16.30;1.00;;;;;;5048675;28;20033;-64
2023/05/20 05:56:51;;;;;;;2.20;2.00;;;16.20;1.00;;;;;;5043511;28;20029;-65
2023/05/20 05:59:16;;;;;;;2.72;2.42;;;16.30;1.00;;;;;;5045255;28;20040;-65
2023/05/20 06:01:42;;;;;;;2.55;1.83;;;16.30;1.00;;;;;;5050421;28;20028;-64
2023/05/20 06:04:08;;;;;;;2.40;2.08;;;16.30;1.00;;;;;;5050724;28;20090;-65
2023/05/20 06:06:33;;;;;;;5.28;2.20;;;16.30;1.00;;;;;;5049824;28;20021;-65
2023/05/20 06:08:59;;;;;;;5.30;2.50;;;16.40;1.00;;;;;;5051129;28;20433;-65
2023/05/20 06:11:25;;;;;;;5.00;2.10;;;16.40;1.00;;;;;;5049728;28;20021;-65
2023/05/20 06:13:51;;;;;;;4.03;2.13;;;16.40;1.00;;;;;;5048453;28;20024;-65
2023/05/20 06:16:17;;;;;;;4.30;2.80;;;16.40;1.00;;;;;;5037740;28;20113;-64
2023/05/20 06:18:44;;;;;;;2.88;2.33;;;16.50;1.00;;;;;;5051404;28;20082;-65
2023/05/20 06:21:10;;;;;;;2.78;2.33;;;16.50;1.00;;;;;;5051350;28;20033;-64
2023/05/20 06:23:36;;;;;;;5.63;2.30;;;16.60;1.00;;;;;;5044363;28;20044;-64
2023/05/20 06:26:02;;;;;;;4.55;2.47;;;16.60;1.00;;;;;;5050344;28;20391;-65
2023/05/20 06:28:29;;;;;;;2.30;2.10;;;16.60;1.00;;;;;;5050945;28;20013;-64
2023/05/20 06:30:55;;;;;;;3.55;2.50;;;16.60;1.00;;;;;;5050413;28;20025;-64
2023/05/20 06:33:25;;;;;;;2.50;2.28;;;16.70;1.00;;;;;;5051712;28;20159;-64
2023/05/20 06:36:16;;;;;;;2.22;2.03;;;16.70;1.00;;;;;;5050070;28;20491;-64
2023/05/20 06:38:42;;;;;;;4.25;3.17;;;16.70;1.00;;;;;;5045908;28;20094;-65
2023/05/20 06:41:07;;;;;;;3.22;2.33;;;16.70;1.00;;;;;;5050031;28;20025;-64
2023/05/20 06:43:33;;;;;;;3.92;2.53;;;16.70;1.00;;;;;;5050736;28;20028;-64
2023/05/20 06:45:59;;;;;;;4.57;2.45;;;16.70;1.00;;;;;;5051256;28;20029;-65
2023/05/20 06:48:24;;;;;;;2.65;2.45;;;16.70;1.00;;;;;;5052257;28;20094;-65
2023/05/20 06:50:50;;;;;;;2.83;2.63;;;16.80;1.00;;;;;;5052730;28;20021;-65
2023/05/20 06:53:16;;;;;;;8.57;3.20;;;16.80;1.00;;;;;;5053163;28;20479;-65
2023/05/20 06:55:41;;;;;;;3.67;2.42;;;16.90;1.00;;;;;;5055096;28;20079;-65
2023/05/20 06:58:07;;;;;;;2.53;2.28;;;16.80;1.00;;;;;;5052738;28;20025;-66
2023/05/20 07:00:33;;;;;;;3.22;2.85;;;16.80;1.00;;;;;;5055076;28;20045;-64
2023/05/20 07:02:58;;;;;;;3.90;3.08;;;16.70;1.00;;;;;;5051061;28;20033;-64
2023/05/20 07:05:24;;;;;;;3.92;3.22;;;16.70;1.00;;;;;;5046276;28;20021;-65
2023/05/20 07:07:50;;;;;;;4.70;3.42;;;16.70;1.00;;;;;;5053495;28;20017;-64
2023/05/20 07:10:16;;;;;;;4.13;3.50;;;16.80;1.00;;;;;;5054920;28;20039;-64
2023/05/20 07:12:41;;;;;;;3.30;3.00;;;16.80;1.00;;;;;;5054390;28;20032;-64
2023/05/20 07:15:07;;;;;;;4.50;3.60;;;16.80;1.00;;;;;;5053369;28;20413;-65
2023/05/20 07:17:33;;;;;;;3.80;3.13;;;16.80;1.00;;;;;;5051853;28;20123;-64
2023/05/20 07:19:59;;;;;;;4.63;3.38;;;16.80;1.00;;;;;;5054154;28;20049;-64
2023/05/20 07:22:25;;;;;;;5.60;3.35;;;16.80;1.00;;;;;;5054381;28;20025;-65
2023/05/20 07:24:50;;;;;;;4.38;3.33;;;16.80;1.00;;;;;;5052984;28;20035;-64
2023/05/20 07:27:16;;;;;;;3.75;3.08;;;16.80;1.00;;;;;;5053921;28;20047;-64
2023/05/20 07:29:42;;;;;;;3.58;3.28;;;16.80;1.00;;;;;;5052888;28;20025;-64
2023/05/20 07:32:09;;;;;;;8.82;3.80;;;16.80;1.00;;;;;;5052296;28;20048;-64
2023/05/20 07:34:34;;;;;;;6.68;3.42;;;16.80;1.00;;;;;;5052565;28;20025;-64
2023/05/20 07:37:00;;;;;;;5.25;3.08;;;16.80;1.00;;;;;;5050771;28;20542;-64
2023/05/20 07:39:26;;;;;;;4.20;3.10;;;16.80;1.00;;;;;;5051573;28;20544;-64
2023/05/20 07:41:52;;;;;;;6.25;3.70;;;16.80;1.00;;;;;;5053236;28;20152;-65
2023/05/20 07:44:20;;;;;;;5.13;3.17;;;16.80;1.00;;;;;;5052904;28;20399;-65
2023/05/20 07:46:45;;;;;;;6.55;3.50;;;16.90;1.00;;;;;;5054115;28;20028;-64
2023/05/20 07:49:11;;;;;;;5.88;3.63;;;16.90;1.00;;;;;;5053569;28;20021;-64
2023/05/20 07:51:37;;;;;;;4.93;3.30;;;16.90;1.00;;;;;;5052416;28;20025;-64
2023/05/20 07:54:03;;;;;;;5.85;3.30;;;16.90;1.00;;;;;;5053695;28;20111;-64
2023/05/20 07:56:28;;;;;;;5.05;3.40;;;16.80;1.00;;;;;;5051391;28;20609;-65
2023/05/20 07:58:58;;;;;;;4.65;2.95;;;16.80;1.00;;;;;;5053673;28;20192;-65
2023/05/20 08:01:25;;;;;;;3.40;2.70;;;16.90;1.00;;;;;;5051392;28;20036;-64
2023/05/20 08:03:51;;;;;;;5.22;3.30;;;16.80;1.00;;;;;;5052659;28;20043;-65
2023/05/20 08:06:19;;;;;;;3.13;2.67;;;16.90;1.00;;;;;;5051959;28;20021;-65
2023/05/20 08:08:45;;;;;;;4.68;3.00;;;16.80;1.00;;;;;;5047768;28;20053;-64
2023/05/20 08:11:11;;;;;;;3.90;2.92;;;16.90;1.00;;;;;;5046249;28;20079;-65
2023/05/20 08:13:37;;;;;;;5.80;3.88;;;16.90;1.00;;;;;;5052346;28;20099;-64
2023/05/20 08:16:04;;;;;;;3.78;3.47;;;16.90;1.00;;;;;;5053243;28;20120;-65
2023/05/20 08:18:31;;;;;;;5.93;3.40;;;16.90;1.00;;;;;;5053542;28;20083;-65
2023/05/20 08:20:57;;;;;;;5.15;3.33;;;16.90;1.00;;;;;;5052624;28;21033;-65
2023/05/20 08:23:23;;;;;;;4.82;3.60;;;16.90;1.00;;;;;;5051934;28;20040;-65
2023/05/20 08:26:28;;;;;;;4.35;3.28;;;16.90;1.00;;;;;;5053540;28;20025;-65
2023/05/20 08:28:54;;;;;;;7.72;3.72;;;16.90;1.00;;;;;;5052004;28;20033;-65
2023/05/20 08:31:20;;;;;;;6.00;3.15;;;16.90;1.00;;;;;;5051493;28;20368;-65
2023/05/20 08:33:45;;;;;;;4.45;3.20;;;16.90;1.00;;;;;;5052394;28;20426;-65
2023/05/20 08:36:11;;;;;;;5.95;3.42;;;16.90;1.00;;;;;;5050354;28;20382;-65
2023/05/20 08:38:37;;;;;;;4.28;3.78;;;16.90;1.00;;;;;;5051281;28;20076;-65
2023/05/20 08:41:02;;;;;;;4.28;3.88;;;16.90;1.00;;;;;;5051874;28;20028;-65
2023/05/20 08:43:29;;;;;;;4.97;4.07;;;16.80;1.00;;;;;;5053004;28;20025;-65
2023/05/20 08:45:55;;;;;;;6.00;3.40;;;16.80;1.00;;;;;;5073034;28;20059;-65
2023/05/20 08:48:24;;;;;;;4.10;3.70;;;16.90;1.00;;;;;;5050397;28;20105;-65
2023/05/20 08:50:51;;;;;;;4.25;3.42;;;17.00;1.00;;;;;;5047170;28;20021;-65
2023/05/20 08:53:18;;;;;;;4.28;3.83;;;17.00;1.00;;;;;;5051038;28;20406;-65
2023/05/20 08:55:52;;;;;;;5.53;3.83;;;17.00;1.00;;;;;;5048912;28;20054;-65
2023/05/20 08:58:18;;;;;;;4.28;3.88;;;17.00;1.00;;;;;;5049070;28;20495;-65
2023/05/20 09:00:44;;;;;;;5.40;3.60;;;17.10;1.00;;;;;;5044011;28;20043;-65
2023/05/20 09:03:10;;;;;;;5.07;3.53;;;17.00;1.00;;;;;;5048881;28;20021;-66
2023/05/20 09:05:35;;;;;;;5.07;3.80;;;17.00;1.00;;;;;;5052304;28;20024;-65
2023/05/20 09:08:09;;;;;;;5.72;3.25;;;17.00;1.00;;;;;;5047730;28;20425;-65
2023/05/20 09:10:35;;;;;;;6.03;3.53;;;17.00;1.00;;;;;;5052662;28;20382;-65
2023/05/20 09:13:03;;;;;;;4.15;3.10;;;17.00;1.00;;;;;;5051475;28;20029;-64
2023/05/20 09:15:30;;;;;;;4.05;3.60;;;17.00;1.00;;;;;;5050728;28;20033;-66
2023/05/20 09:18:02;;;;;;;6.30;3.60;;;17.00;1.00;;;;;;5050016;28;20036;-65
2023/05/20 09:20:28;;;;;;;4.90;3.53;;;17.10;1.00;;;;;;5049291;28;20037;-66
2023/05/20 09:23:01;;;;;;;6.85;4.35;;;17.10;1.00;;;;;;5050665;28;20021;-66
2023/05/20 09:25:28;;;;;;;7.72;3.92;;;17.00;1.00;;;;;;5052292;28;20033;-67
2023/05/20 09:27:54;;;;;;;4.32;3.17;;;17.10;1.00;;;;;;5042885;28;20025;-66
2023/05/20 09:30:20;;;;;;;5.05;3.70;;;17.00;1.00;;;;;;5050154;28;20044;-67
2023/05/20 09:32:54;;;;;;;4.95;4.35;;;17.00;1.00;;;;;;5050275;28;20028;-67
2023/05/20 09:35:22;;;;;;;6.25;5.43;;;17.00;1.00;;;;;;5052080;28;20129;-68
2023/05/20 09:37:50;;;;;;;7.63;4.88;;;16.90;1.00;;;;;;5048965;28;20052;-67
2023/05/20 09:40:20;;;;;;;5.25;4.00;;;16.90;1.00;;;;;;5050007;28;20045;-67
2023/05/20 09:43:00;;;;;;;7.25;5.03;;;17.00;1.00;;;;;;5048241;28;20041;-67
2023/05/20 09:45:26;;;;;;;4.65;3.72;;;17.10;1.00;;;;;;5049150;28;20522;-67
2023/05/20 09:47:53;;;;;;;7.55;4.07;;;17.20;1.00;;;;;;5046138;28;20029;-67
2023/05/20 09:50:20;;;;;;;6.07;4.63;;;17.20;1.00;;;;;;5049426;28;20021;-68
2023/05/20 09:52:48;;;;;;;4.88;3.88;;;17.30;1.00;;;;;;5038708;28;20053;-67
2023/05/20 09:55:15;;;;;;;8.45;4.68;;;17.30;1.00;;;;;;5041873;28;20090;-66
2023/05/20 09:57:41;;;;;;;5.28;4.15;;;17.30;1.00;;;;;;5045275;28;20060;-67
2023/05/20 10:00:07;;;;;;;7.10;3.92;;;17.20;1.00;;;;;;5048842;28;20087;-66
2023/05/20 10:02:34;;;;;;;4.82;3.80;;;17.10;1.00;;;;;;5049273;28;20029;-66
2023/05/20 10:05:06;;;;;;;5.13;3.78;;;17.10;1.00;;;;;;5050597;28;20067;-67
2023/05/20 10:08:03;;;;;;;5.85;3.65;;;17.10;1.00;;;;;;5048322;28;20035;-67
2023/05/20 10:10:49;;;;;;;4.78;4.38;;;17.20;1.00;;;;;;5047931;28;20045;-67
2023/05/20 10:13:35;;;;;;;5.95;4.28;;;17.30;1.00;;;;;;5037199;28;20044;-67
2023/05/20 10:16:29;;;;;;;7.05;5.00;;;17.30;1.00;;;;;;5049631;28;20021;-67
2023/05/20 10:18:57;;;;;;;5.10;4.63;;;17.30;1.00;;;;;;5046532;28;20037;-67
2023/05/20 10:21:23;;;;;;;5.50;4.93;;;17.30;1.00;;;;;;5051383;28;20052;-67
2023/05/20 10:23:50;;;;;;;6.47;5.88;;;17.30;1.00;;;;;;5052811;28;20089;-67
2023/05/20 10:26:17;;;;;;;7.30;5.82;;;17.40;1.00;;;;;;5051374;28;20017;-67
2023/05/20 10:28:44;;;;;;;6.85;6.15;;;17.40;1.00;;;;;;5051157;28;20059;-67
2023/05/20 10:31:23;;;;;;;7.72;6.82;;;17.40;1.00;;;;;;5054420;28;20025;-67
2023/05/20 10:33:52;;;;;;;5.78;4.90;;;17.40;1.00;;;;;;5055468;28;20491;-67
2023/05/20 10:36:27;;;;;;;8.10;5.40;;;17.30;1.00;;;;;;5050797;28;20033;-65
2023/05/20 10:38:55;;;;;;;6.63;6.03;;;17.10;1.00;;;;;;5049756;28;20376;-67
2023/05/20 10:41:27;;;;;;;5.70;5.20;;;17.10;1.00;;;;;;5053876;28;20052;-66
2023/05/20 10:44:00;;;;;;;11.35;8.10;;;17.10;1.00;;;;;;5055539;28;20021;-67
2023/05/20 10:46:25;;;;;;;8.50;6.53;;;17.10;1.00;;;;;;5053768;28;20432;-67
2023/05/20 10:48:51;;;;;;;7.32;6.57;;;17.20;1.00;;;;;;5051785;28;20021;-68
2023/05/20 10:51:17;;;;;;;7.13;5.95;;;17.40;1.00;;;;;;5049880;28;20402;-67
2023/05/20 10:53:45;;;;;;;7.50;6.60;;;17.50;1.00;;;;;;5051491;28;20479;-67
2023/05/20 10:56:22;;;;;;;8.30;7.03;;;17.40;1.00;;;;;;5052053;28;20035;-67
2023/05/20 10:58:49;;;;;;;8.00;7.00;;;17.50;1.00;;;;;;5052323;28;20478;-67
2023/05/20 11:01:15;;;;;;;7.22;6.30;;;17.50;1.00;;;;;;5044091;28;20052;-67
2023/05/20 11:03:43;;;;;;;8.48;7.68;;;17.50;1.00;;;;;;5051778;28;20024;-68
2023/05/20 11:06:18;;;;;;;8.57;7.10;;;17.60;1.00;;;;;;5053945;28;20024;-67
2023/05/20 11:08:44;;;;;;;11.48;6.63;;;17.60;1.00;;;;;;5051557;28;20148;-66
2023/05/20 11:11:11;;;;;;;9.10;6.57;;;17.70;1.00;;;;;;5051595;28;20032;-67
2023/05/20 11:13:37;;;;;;;6.53;5.80;;;17.70;1.00;;;;;;5053997;28;20021;-67
2023/05/20 11:16:03;;;;;;;7.47;5.80;;;17.70;1.00;;;;;;5053290;28;20425;-68
2023/05/20 11:18:30;;;;;;;7.05;6.35;;;17.70;1.00;;;;;;5053740;28;20098;-68
2023/05/20 11:20:57;;;;;;;7.15;5.25;;;17.70;1.00;;;;;;5048901;28;20049;-67
2023/05/20 11:23:23;;;;;;;5.68;5.05;;;17.70;1.00;;;;;;5053617;28;20037;-67
2023/05/20 11:25:50;;;;;;;7.55;5.97;;;17.70;1.00;;;;;;5053287;28;20116;-67
2023/05/20 11:28:18;;;;;;;8.77;4.88;;;17.60;1.00;;;;;;5054445;28;20021;-68
2023/05/20 11:30:44;;;;;;;6.70;5.68;;;17.60;1.00;;;;;;5053265;28;20025;-68
2023/05/20 11:33:15;;;;;;;5.55;5.05;;;17.70;1.00;;;;;;5052222;28;20559;-67
2023/05/20 11:35:50;;;;;;;8.07;6.35;;;17.70;1.00;;;;;;5051823;28;20471;-67
2023/05/20 11:38:17;;;;;;;6.20;5.50;;;17.70;1.00;;;;;;5050048;28;20059;-67
2023/05/20 11:41:00;;;;;;;42.28;7.72;;;17.70;1.00;;;;;;5051553;28;20044;-67
2023/05/20 11:43:26;;;;;;;5.75;4.32;;;17.60;1.00;;;;;;5050863;28;20029;-68
2023/05/20 11:45:54;;;;;;;6.20;4.82;;;17.60;1.00;;;;;;5053821;28;20033;-66
2023/05/20 11:48:20;;;;;;;6.72;4.47;;;17.60;1.00;;;;;;5054035;28;20033;-68
2023/05/20 11:50:47;;;;;;;5.53;4.93;;;17.50;1.00;;;;;;5052529;28;20106;-67
2023/05/20 11:53:17;;;;;;;8.05;5.47;;;17.50;1.00;;;;;;5054124;28;20031;-67
2023/05/20 11:55:53;;;;;;;6.53;5.40;;;17.60;1.00;;;;;;5053824;28;20116;-67
2023/05/20 11:58:24;;;;;;;6.97;5.43;;;17.60;1.00;;;;;;5051002;28;20052;-68
2023/05/20 12:00:50;;;;;;;10.32;6.82;;;17.60;1.00;;;;;;5051673;28;20041;-67
2023/05/20 12:03:16;;;;;;;5.93;5.43;;;17.60;1.00;;;;;;5053536;28;20029;-67
2023/05/20 12:05:42;;;;;;;6.13;5.50;;;17.60;1.00;;;;;;5049994;28;20021;-66
2023/05/20 12:08:08;;;;;;;7.22;5.05;;;17.50;1.00;;;;;;5052360;28;20032;-66
2023/05/20 12:10:33;;;;;;;7.50;5.95;;;17.50;1.00;;;;;;5052538;28;20032;-67
2023/05/20 12:12:59;;;;;;;7.22;5.90;;;17.40;1.00;;;;;;5052627;28;20035;-67
2023/05/20 12:15:25;;;;;;;6.90;4.70;;;17.50;1.00;;;;;;5053589;28;20032;-66
2023/05/20 12:17:52;;;;;;;5.80;5.30;;;17.40;1.00;;;;;;5052242;28;20021;-67
2023/05/20 12:20:21;;;;;;;10.50;6.15;;;17.40;1.00;;;;;;5053184;28;20041;-66
2023/05/20 12:22:47;;;;;;;6.35;5.13;;;17.40;1.00;;;;;;5051400;28;20029;-66
2023/05/20 12:25:18;;;;;;;6.25;5.00;;;17.40;1.00;;;;;;5052205;28;20393;-66
2023/05/20 12:27:46;;;;;;;7.95;5.75;;;17.20;1.00;;;;;;5053648;28;20052;-67
2023/05/20 12:30:15;;;;;;;10.32;5.85;;;17.30;1.00;;;;;;5053021;28;20078;-67
2023/05/20 12:32:42;;;;;;;7.90;6.13;;;17.40;1.00;;;;;;5050868;28;20370;-66
2023/05/20 12:35:08;;;;;;;6.75;5.15;;;17.50;1.00;;;;;;5032183;28;20061;-67
2023/05/20 12:37:35;;;;;;;7.80;5.25;;;17.40;1.00;;;;;;5049184;28;20057;-67
2023/05/20 12:40:00;;;;;;;5.78;4.30;;;17.50;1.00;;;;;;5048132;28;20430;-66
2023/05/20 12:42:26;;;;;;;7.28;5.20;;;17.50;1.00;;;;;;5050688;28;20109;-66
2023/05/20 12:44:52;;;;;;;6.25;4.35;;;17.60;1.00;;;;;;5047644;28;20031;-66
2023/05/20 12:47:19;;;;;;;5.32;4.82;;;17.50;1.00;;;;;;5052920;28;20116;-67
2023/05/20 12:49:44;;;;;;;9.60;5.60;;;17.50;1.00;;;;;;5051720;28;20029;-66
2023/05/20 12:52:10;;;;;;;6.45;5.53;;;17.60;1.00;;;;;;5051459;28;20044;-66
2023/05/20 12:54:36;;;;;;;7.85;4.95;;;17.40;1.00;;;;;;5051419;28;20662;-66